sensor_id;sensor_type;location;lat;lon;timestamp;P1;durP1;ratioP1;P2;durP2;ratioP2
30299;SDS011;17110;52.602;12.998;2023-04-08T00:00:52;34.70;;;27.55;;
30299;SDS011;17110;52.602;12.998;2023-04-08T00:03:21;33.20;;;26.08;;
30299;SDS011;17110;52.602;12.998;2023-04-08T00:05:59;29.25;;;25.48;;
30299;SDS011;17110;52.602;12.998;2023-04-08T00:08:27;29.92;;;25.85;;
30299;SDS011;17110;52.602;12.998;2023-04-08T00:10:53;30.20;;;25.35;;
30299;SDS011;17110;52.602;12.998;2023-04-08T00:13:19;34.53;;;27.42;;
30299;SDS011;17110;52.602;12.998;2023-04-08T00:15:44;34.97;;;28.73;;
30299;SDS011;17110;52.602;12.998;2023-04-08T00:18:10;31.52;;;26.80;;
30299;SDS011;17110;52.602;12.998;2023-04-08T00:20:37;35.78;;;29.23;;
30299;SDS011;17110;52.602;12.998;2023-04-08T00:23:03;36.28;;;29.25;;
30299;SDS011;17110;52.602;12.998;2023-04-08T00:25:29;40.97;;;31.80;;
30299;SDS011;17110;52.602;12.998;2023-04-08T00:27:57;40.95;;;32.03;;
30299;SDS011;17110;52.602;12.998;2023-04-08T00:30:23;43.00;;;33.83;;
30299;SDS011;17110;52.602;12.998;2023-04-08T00:32:51;49.00;;;35.60;;
30299;SDS011;17110;52.602;12.998;2023-04-08T00:35:19;51.17;;;36.83;;
30299;SDS011;17110;52.602;12.998;2023-04-08T00:37:45;49.72;;;35.67;;
30299;SDS011;17110;52.602;12.998;2023-04-08T00:40:16;47.85;;;34.72;;
30299;SDS011;17110;52.602;12.998;2023-04-08T00:42:42;50.15;;;36.05;;
30299;SDS011;17110;52.602;12.998;2023-04-08T00:45:11;52.60;;;37.27;;
30299;SDS011;17110;52.602;12.998;2023-04-08T00:47:40;51.90;;;36.80;;
30299;SDS011;17110;52.602;12.998;2023-04-08T00:50:18;51.58;;;35.92;;
30299;SDS011;17110;52.602;12.998;2023-04-08T00:52:46;51.47;;;35.85;;
30299;SDS011;17110;52.602;12.998;2023-04-08T00:55:12;53.67;;;35.85;;
30299;SDS011;17110;52.602;12.998;2023-04-08T00:57:38;49.47;;;34.75;;
30299;SDS011;17110;52.602;12.998;2023-04-08T01:00:04;48.47;;;34.92;;
30299;SDS011;17110;52.602;12.998;2023-04-08T01:05:01;51.63;;;35.15;;
30299;SDS011;17110;52.602;12.998;2023-04-08T01:07:44;51.92;;;35.45;;
30299;SDS011;17110;52.602;12.998;2023-04-08T01:10:21;51.33;;;35.00;;
30299;SDS011;17110;52.602;12.998;2023-04-08T01:12:52;49.13;;;34.97;;
30299;SDS011;17110;52.602;12.998;2023-04-08T01:15:39;47.97;;;33.38;;
30299;SDS011;17110;52.602;12.998;2023-04-08T01:18:12;50.55;;;34.28;;
30299;SDS011;17110;52.602;12.998;2023-04-08T01:20:41;50.13;;;35.05;;
30299;SDS011;17110;52.602;12.998;2023-04-08T01:23:19;50.38;;;34.17;;
30299;SDS011;17110;52.602;12.998;2023-04-08T01:25:58;52.83;;;35.33;;
30299;SDS011;17110;52.602;12.998;2023-04-08T01:28:27;51.00;;;34.53;;
30299;SDS011;17110;52.602;12.998;2023-04-08T01:30:59;50.93;;;34.70;;
30299;SDS011;17110;52.602;12.998;2023-04-08T01:33:32;53.08;;;35.55;;
30299;SDS011;17110;52.602;12.998;2023-04-08T01:36:02;50.25;;;34.60;;
30299;SDS011;17110;52.602;12.998;2023-04-08T01:38:29;50.70;;;34.67;;
30299;SDS011;17110;52.602;12.998;2023-04-08T01:40:58;47.67;;;34.17;;
30299;SDS011;17110;52.602;12.998;2023-04-08T01:43:25;49.30;;;34.05;;
30299;SDS011;17110;52.602;12.998;2023-04-08T01:45:51;49.05;;;33.67;;
30299;SDS011;17110;52.602;12.998;2023-04-08T01:48:22;48.45;;;33.40;;
30299;SDS011;17110;52.602;12.998;2023-04-08T01:50:49;51.45;;;34.60;;
30299;SDS011;17110;52.602;12.998;2023-04-08T01:53:17;51.63;;;34.95;;
30299;SDS011;17110;52.602;12.998;2023-04-08T01:55:44;50.22;;;34.00;;
30299;SDS011;17110;52.602;12.998;2023-04-08T01:58:20;47.33;;;32.58;;
30299;SDS011;17110;52.602;12.998;2023-04-08T02:00:46;47.05;;;33.35;;
30299;SDS011;17110;52.602;12.998;2023-04-08T02:03:17;50.05;;;34.15;;
30299;SDS011;17110;52.602;12.998;2023-04-08T02:05:46;48.30;;;33.60;;
30299;SDS011;17110;52.602;12.998;2023-04-08T02:08:15;47.00;;;33.78;;
30299;SDS011;17110;52.602;12.998;2023-04-08T02:10:41;45.28;;;33.30;;
30299;SDS011;17110;52.602;12.998;2023-04-08T02:13:12;45.83;;;33.60;;
30299;SDS011;17110;52.602;12.998;2023-04-08T02:15:42;46.67;;;33.70;;
30299;SDS011;17110;52.602;12.998;2023-04-08T02:18:18;47.65;;;34.38;;
30299;SDS011;17110;52.602;12.998;2023-04-08T02:20:50;48.97;;;34.03;;
30299;SDS011;17110;52.602;12.998;2023-04-08T02:23:23;47.47;;;33.33;;
30299;SDS011;17110;52.602;12.998;2023-04-08T02:25:52;47.95;;;34.35;;
30299;SDS011;17110;52.602;12.998;2023-04-08T02:28:20;48.50;;;33.47;;
30299;SDS011;17110;52.602;12.998;2023-04-08T02:30:49;49.23;;;34.60;;
30299;SDS011;17110;52.602;12.998;2023-04-08T02:33:20;50.72;;;34.22;;
30299;SDS011;17110;52.602;12.998;2023-04-08T02:35:49;47.10;;;33.00;;
30299;SDS011;17110;52.602;12.998;2023-04-08T02:38:18;44.97;;;32.07;;
30299;SDS011;17110;52.602;12.998;2023-04-08T02:40:50;46.90;;;34.08;;
30299;SDS011;17110;52.602;12.998;2023-04-08T02:43:19;44.05;;;33.65;;
30299;SDS011;17110;52.602;12.998;2023-04-08T02:46:05;46.65;;;33.08;;
30299;SDS011;17110;52.602;12.998;2023-04-08T02:48:32;48.17;;;34.20;;
30299;SDS011;17110;52.602;12.998;2023-04-08T02:50:58;41.55;;;31.73;;
30299;SDS011;17110;52.602;12.998;2023-04-08T02:53:24;47.53;;;33.53;;
30299;SDS011;17110;52.602;12.998;2023-04-08T02:55:50;45.43;;;33.40;;
30299;SDS011;17110;52.602;12.998;2023-04-08T02:58:18;45.00;;;32.95;;
30299;SDS011;17110;52.602;12.998;2023-04-08T03:00:46;47.03;;;33.67;;
30299;SDS011;17110;52.602;12.998;2023-04-08T03:03:12;47.78;;;33.88;;
30299;SDS011;17110;52.602;12.998;2023-04-08T03:05:37;48.80;;;34.47;;
30299;SDS011;17110;52.602;12.998;2023-04-08T03:08:06;50.85;;;34.03;;
30299;SDS011;17110;52.602;12.998;2023-04-08T03:10:36;49.15;;;34.40;;
30299;SDS011;17110;52.602;12.998;2023-04-08T03:13:07;44.38;;;32.80;;
30299;SDS011;17110;52.602;12.998;2023-04-08T03:15:37;45.55;;;33.28;;
30299;SDS011;17110;52.602;12.998;2023-04-08T03:18:12;46.55;;;32.83;;
30299;SDS011;17110;52.602;12.998;2023-04-08T03:20:38;49.87;;;34.53;;
30299;SDS011;17110;52.602;12.998;2023-04-08T03:23:06;48.73;;;33.83;;
30299;SDS011;17110;52.602;12.998;2023-04-08T03:25:40;54.00;;;35.80;;
30299;SDS011;17110;52.602;12.998;2023-04-08T03:28:06;52.57;;;35.67;;
30299;SDS011;17110;52.602;12.998;2023-04-08T03:30:32;52.88;;;35.95;;
30299;SDS011;17110;52.602;12.998;2023-04-08T03:32:57;54.55;;;36.13;;
30299;SDS011;17110;52.602;12.998;2023-04-08T03:35:23;50.90;;;35.87;;
30299;SDS011;17110;52.602;12.998;2023-04-08T03:37:49;55.10;;;36.40;;
30299;SDS011;17110;52.602;12.998;2023-04-08T03:40:19;57.28;;;37.17;;
30299;SDS011;17110;52.602;12.998;2023-04-08T03:42:45;55.90;;;36.83;;
30299;SDS011;17110;52.602;12.998;2023-04-08T03:45:11;56.72;;;36.83;;
30299;SDS011;17110;52.602;12.998;2023-04-08T03:47:37;55.87;;;37.03;;
30299;SDS011;17110;52.602;12.998;2023-04-08T03:50:02;56.67;;;37.30;;
30299;SDS011;17110;52.602;12.998;2023-04-08T03:52:28;52.97;;;36.25;;
30299;SDS011;17110;52.602;12.998;2023-04-08T03:54:56;56.30;;;37.13;;
30299;SDS011;17110;52.602;12.998;2023-04-08T03:57:25;60.22;;;37.63;;
30299;SDS011;17110;52.602;12.998;2023-04-08T03:59:56;52.57;;;35.20;;
30299;SDS011;17110;52.602;12.998;2023-04-08T04:02:24;56.30;;;36.88;;
30299;SDS011;17110;52.602;12.998;2023-04-08T04:04:53;54.30;;;35.40;;
30299;SDS011;17110;52.602;12.998;2023-04-08T04:07:21;50.87;;;34.00;;
30299;SDS011;17110;52.602;12.998;2023-04-08T04:09:47;54.30;;;35.10;;
30299;SDS011;17110;52.602;12.998;2023-04-08T04:12:18;51.90;;;34.55;;
30299;SDS011;17110;52.602;12.998;2023-04-08T04:14:46;51.70;;;34.93;;
30299;SDS011;17110;52.602;12.998;2023-04-08T04:17:12;49.72;;;32.88;;
30299;SDS011;17110;52.602;12.998;2023-04-08T04:19:38;51.05;;;33.95;;
30299;SDS011;17110;52.602;12.998;2023-04-08T04:22:08;47.08;;;32.15;;
30299;SDS011;17110;52.602;12.998;2023-04-08T04:24:37;50.42;;;32.13;;
30299;SDS011;17110;52.602;12.998;2023-04-08T04:27:04;48.95;;;32.80;;
30299;SDS011;17110;52.602;12.998;2023-04-08T04:29:30;51.15;;;31.60;;
30299;SDS011;17110;52.602;12.998;2023-04-08T04:31:56;47.85;;;32.47;;
30299;SDS011;17110;52.602;12.998;2023-04-08T04:34:22;51.03;;;32.47;;
30299;SDS011;17110;52.602;12.998;2023-04-08T04:36:56;53.17;;;33.60;;
30299;SDS011;17110;52.602;12.998;2023-04-08T04:39:26;53.53;;;33.72;;
30299;SDS011;17110;52.602;12.998;2023-04-08T04:41:55;56.50;;;34.60;;
30299;SDS011;17110;52.602;12.998;2023-04-08T04:44:29;50.70;;;33.05;;
30299;SDS011;17110;52.602;12.998;2023-04-08T04:47:00;49.15;;;31.83;;
30299;SDS011;17110;52.602;12.998;2023-04-08T04:49:29;50.33;;;33.42;;
30299;SDS011;17110;52.602;12.998;2023-04-08T04:51:58;46.42;;;32.53;;
30299;SDS011;17110;52.602;12.998;2023-04-08T04:54:27;48.90;;;33.25;;
30299;SDS011;17110;52.602;12.998;2023-04-08T04:56:53;47.33;;;32.37;;
30299;SDS011;17110;52.602;12.998;2023-04-08T04:59:31;50.63;;;33.47;;
30299;SDS011;17110;52.602;12.998;2023-04-08T05:02:02;48.83;;;31.95;;
30299;SDS011;17110;52.602;12.998;2023-04-08T05:04:31;49.08;;;32.40;;
30299;SDS011;17110;52.602;12.998;2023-04-08T05:07:02;46.20;;;31.50;;
30299;SDS011;17110;52.602;12.998;2023-04-08T05:09:30;47.00;;;30.75;;
30299;SDS011;17110;52.602;12.998;2023-04-08T05:11:58;45.75;;;30.38;;
30299;SDS011;17110;52.602;12.998;2023-04-08T05:14:24;49.07;;;32.27;;
30299;SDS011;17110;52.602;12.998;2023-04-08T05:16:55;59.53;;;35.22;;
30299;SDS011;17110;52.602;12.998;2023-04-08T05:19:21;48.78;;;31.55;;
30299;SDS011;17110;52.602;12.998;2023-04-08T05:21:50;48.72;;;31.45;;
30299;SDS011;17110;52.602;12.998;2023-04-08T05:24:18;51.03;;;32.33;;
30299;SDS011;17110;52.602;12.998;2023-04-08T05:26:46;49.95;;;31.52;;
30299;SDS011;17110;52.602;12.998;2023-04-08T05:29:16;49.03;;;31.88;;
30299;SDS011;17110;52.602;12.998;2023-04-08T05:31:46;45.93;;;30.77;;
30299;SDS011;17110;52.602;12.998;2023-04-08T05:34:11;52.10;;;32.10;;
30299;SDS011;17110;52.602;12.998;2023-04-08T05:36:37;49.07;;;32.20;;
30299;SDS011;17110;52.602;12.998;2023-04-08T05:39:06;51.78;;;32.70;;
30299;SDS011;17110;52.602;12.998;2023-04-08T05:41:32;46.60;;;32.20;;
30299;SDS011;17110;52.602;12.998;2023-04-08T05:44:00;47.55;;;31.60;;
30299;SDS011;17110;52.602;12.998;2023-04-08T05:46:31;50.58;;;31.73;;
30299;SDS011;17110;52.602;12.998;2023-04-08T05:49:04;51.17;;;32.55;;
30299;SDS011;17110;52.602;12.998;2023-04-08T05:51:32;46.65;;;31.40;;
30299;SDS011;17110;52.602;12.998;2023-04-08T05:54:01;45.13;;;30.27;;
30299;SDS011;17110;52.602;12.998;2023-04-08T05:56:27;45.97;;;31.15;;
30299;SDS011;17110;52.602;12.998;2023-04-08T05:58:56;44.75;;;30.67;;
30299;SDS011;17110;52.602;12.998;2023-04-08T06:01:25;47.70;;;30.52;;
30299;SDS011;17110;52.602;12.998;2023-04-08T06:03:54;44.47;;;29.53;;
30299;SDS011;17110;52.602;12.998;2023-04-08T06:06:21;43.05;;;29.23;;
30299;SDS011;17110;52.602;12.998;2023-04-08T06:08:47;42.90;;;29.73;;
30299;SDS011;17110;52.602;12.998;2023-04-08T06:11:18;46.03;;;29.05;;
30299;SDS011;17110;52.602;12.998;2023-04-08T06:13:47;41.17;;;27.13;;
30299;SDS011;17110;52.602;12.998;2023-04-08T06:16:15;39.50;;;27.43;;
30299;SDS011;17110;52.602;12.998;2023-04-08T06:18:46;38.45;;;27.27;;
30299;SDS011;17110;52.602;12.998;2023-04-08T06:21:23;37.95;;;26.25;;
30299;SDS011;17110;52.602;12.998;2023-04-08T06:23:52;38.22;;;27.40;;
30299;SDS011;17110;52.602;12.998;2023-04-08T06:26:21;41.70;;;27.10;;
30299;SDS011;17110;52.602;12.998;2023-04-08T06:28:49;42.05;;;27.60;;
30299;SDS011;17110;52.602;12.998;2023-04-08T06:31:17;36.83;;;27.33;;
30299;SDS011;17110;52.602;12.998;2023-04-08T06:34:05;36.90;;;26.52;;
30299;SDS011;17110;52.602;12.998;2023-04-08T06:36:36;38.08;;;26.42;;
30299;SDS011;17110;52.602;12.998;2023-04-08T06:39:04;37.60;;;26.85;;
30299;SDS011;17110;52.602;12.998;2023-04-08T06:41:45;33.78;;;25.08;;
30299;SDS011;17110;52.602;12.998;2023-04-08T06:44:36;35.65;;;25.63;;
30299;SDS011;17110;52.602;12.998;2023-04-08T06:47:05;36.43;;;26.90;;
30299;SDS011;17110;52.602;12.998;2023-04-08T06:49:33;37.20;;;27.60;;
30299;SDS011;17110;52.602;12.998;2023-04-08T06:52:00;36.70;;;27.20;;
30299;SDS011;17110;52.602;12.998;2023-04-08T06:54:26;41.75;;;29.38;;
30299;SDS011;17110;52.602;12.998;2023-04-08T06:56:55;40.90;;;28.27;;
30299;SDS011;17110;52.602;12.998;2023-04-08T06:59:31;35.00;;;27.25;;
30299;SDS011;17110;52.602;12.998;2023-04-08T07:02:12;37.17;;;27.25;;
30299;SDS011;17110;52.602;12.998;2023-04-08T07:07:57;40.13;;;28.30;;
30299;SDS011;17110;52.602;12.998;2023-04-08T07:10:23;36.47;;;27.48;;
30299;SDS011;17110;52.602;12.998;2023-04-08T07:13:01;37.20;;;26.90;;
30299;SDS011;17110;52.602;12.998;2023-04-08T07:15:29;39.17;;;27.10;;
30299;SDS011;17110;52.602;12.998;2023-04-08T07:18:04;37.10;;;27.38;;
30299;SDS011;17110;52.602;12.998;2023-04-08T07:20:30;38.03;;;27.90;;
30299;SDS011;17110;52.602;12.998;2023-04-08T07:22:58;39.10;;;29.03;;
30299;SDS011;17110;52.602;12.998;2023-04-08T07:25:44;38.65;;;28.75;;
30299;SDS011;17110;52.602;12.998;2023-04-08T07:28:14;40.15;;;29.25;;
30299;SDS011;17110;52.602;12.998;2023-04-08T07:30:42;41.03;;;28.95;;
30299;SDS011;17110;52.602;12.998;2023-04-08T07:33:10;38.47;;;28.05;;
30299;SDS011;17110;52.602;12.998;2023-04-08T07:35:37;41.93;;;28.30;;
30299;SDS011;17110;52.602;12.998;2023-04-08T07:38:08;37.75;;;28.38;;
30299;SDS011;17110;52.602;12.998;2023-04-08T07:40:54;40.42;;;28.40;;
30299;SDS011;17110;52.602;12.998;2023-04-08T07:43:20;42.07;;;28.97;;
30299;SDS011;17110;52.602;12.998;2023-04-08T07:45:45;44.00;;;30.20;;
30299;SDS011;17110;52.602;12.998;2023-04-08T07:48:21;44.03;;;30.15;;
30299;SDS011;17110;52.602;12.998;2023-04-08T07:50:52;41.00;;;29.23;;
30299;SDS011;17110;52.602;12.998;2023-04-08T07:53:38;39.70;;;29.02;;
30299;SDS011;17110;52.602;12.998;2023-04-08T07:56:13;42.53;;;30.20;;
30299;SDS011;17110;52.602;12.998;2023-04-08T07:58:45;40.80;;;30.50;;
30299;SDS011;17110;52.602;12.998;2023-04-08T08:01:21;42.22;;;30.55;;
30299;SDS011;17110;52.602;12.998;2023-04-08T08:03:57;42.37;;;30.00;;
30299;SDS011;17110;52.602;12.998;2023-04-08T08:06:25;41.50;;;29.98;;
30299;SDS011;17110;52.602;12.998;2023-04-08T08:08:54;38.58;;;29.00;;
30299;SDS011;17110;52.602;12.998;2023-04-08T08:11:22;37.67;;;29.05;;
30299;SDS011;17110;52.602;12.998;2023-04-08T08:14:03;40.75;;;28.70;;
30299;SDS011;17110;52.602;12.998;2023-04-08T08:16:31;38.25;;;28.55;;
30299;SDS011;17110;52.602;12.998;2023-04-08T08:19:00;39.00;;;27.88;;
30299;SDS011;17110;52.602;12.998;2023-04-08T08:21:36;41.30;;;29.67;;
30299;SDS011;17110;52.602;12.998;2023-04-08T08:24:11;43.30;;;29.25;;
30299;SDS011;17110;52.602;12.998;2023-04-08T08:26:57;40.40;;;29.58;;
30299;SDS011;17110;52.602;12.998;2023-04-08T08:29:30;41.00;;;30.60;;
30299;SDS011;17110;52.602;12.998;2023-04-08T08:31:56;40.50;;;28.70;;
30299;SDS011;17110;52.602;12.998;2023-04-08T08:34:22;42.77;;;30.50;;
30299;SDS011;17110;52.602;12.998;2023-04-08T08:36:48;43.05;;;31.20;;
30299;SDS011;17110;52.602;12.998;2023-04-08T08:39:20;39.65;;;29.35;;
30299;SDS011;17110;52.602;12.998;2023-04-08T08:41:56;40.50;;;29.67;;
30299;SDS011;17110;52.602;12.998;2023-04-08T08:44:25;40.53;;;29.87;;
30299;SDS011;17110;52.602;12.998;2023-04-08T08:46:54;43.60;;;31.88;;
30299;SDS011;17110;52.602;12.998;2023-04-08T08:49:27;40.17;;;29.42;;
30299;SDS011;17110;52.602;12.998;2023-04-08T08:51:56;39.90;;;30.00;;
30299;SDS011;17110;52.602;12.998;2023-04-08T08:54:29;38.45;;;29.05;;
30299;SDS011;17110;52.602;12.998;2023-04-08T08:56:57;37.15;;;28.55;;
30299;SDS011;17110;52.602;12.998;2023-04-08T08:59:23;34.80;;;27.58;;
30299;SDS011;17110;52.602;12.998;2023-04-08T09:01:59;38.80;;;27.08;;
30299;SDS011;17110;52.602;12.998;2023-04-08T09:04:31;33.75;;;25.05;;
30299;SDS011;17110;52.602;12.998;2023-04-08T09:10:05;31.45;;;24.48;;
30299;SDS011;17110;52.602;12.998;2023-04-08T09:12:34;32.93;;;25.03;;
30299;SDS011;17110;52.602;12.998;2023-04-08T09:15:17;32.85;;;25.42;;
30299;SDS011;17110;52.602;12.998;2023-04-08T09:17:42;35.65;;;26.48;;
30299;SDS011;17110;52.602;12.998;2023-04-08T09:20:11;32.15;;;25.67;;
30299;SDS011;17110;52.602;12.998;2023-04-08T09:25:21;33.33;;;25.80;;
30299;SDS011;17110;52.602;12.998;2023-04-08T09:27:49;35.00;;;26.30;;
30299;SDS011;17110;52.602;12.998;2023-04-08T09:30:20;33.67;;;25.77;;
30299;SDS011;17110;52.602;12.998;2023-04-08T09:32:47;36.88;;;27.27;;
30299;SDS011;17110;52.602;12.998;2023-04-08T09:35:17;37.13;;;27.98;;
30299;SDS011;17110;52.602;12.998;2023-04-08T09:37:44;36.70;;;27.58;;
30299;SDS011;17110;52.602;12.998;2023-04-08T09:40:13;34.17;;;26.33;;
30299;SDS011;17110;52.602;12.998;2023-04-08T09:42:41;34.67;;;26.80;;
30299;SDS011;17110;52.602;12.998;2023-04-08T09:45:12;37.10;;;27.98;;
30299;SDS011;17110;52.602;12.998;2023-04-08T09:50:23;34.03;;;25.45;;
30299;SDS011;17110;52.602;12.998;2023-04-08T09:52:52;34.50;;;25.87;;
30299;SDS011;17110;52.602;12.998;2023-04-08T09:55:44;33.88;;;25.20;;
30299;SDS011;17110;52.602;12.998;2023-04-08T09:58:18;33.50;;;25.80;;
30299;SDS011;17110;52.602;12.998;2023-04-08T10:00:51;31.42;;;24.17;;
30299;SDS011;17110;52.602;12.998;2023-04-08T10:03:29;36.50;;;27.13;;
30299;SDS011;17110;52.602;12.998;2023-04-08T10:06:06;32.85;;;25.27;;
30299;SDS011;17110;52.602;12.998;2023-04-08T10:08:36;33.00;;;25.83;;
30299;SDS011;17110;52.602;12.998;2023-04-08T10:11:02;32.05;;;25.90;;
30299;SDS011;17110;52.602;12.998;2023-04-08T10:13:33;33.63;;;25.52;;
30299;SDS011;17110;52.602;12.998;2023-04-08T10:18:46;34.88;;;26.67;;
30299;SDS011;17110;52.602;12.998;2023-04-08T10:21:32;34.42;;;26.23;;
30299;SDS011;17110;52.602;12.998;2023-04-08T10:24:05;33.58;;;26.30;;
30299;SDS011;17110;52.602;12.998;2023-04-08T10:26:32;34.73;;;26.00;;
30299;SDS011;17110;52.602;12.998;2023-04-08T10:31:49;31.45;;;24.92;;
30299;SDS011;17110;52.602;12.998;2023-04-08T10:34:22;32.50;;;25.70;;
30299;SDS011;17110;52.602;12.998;2023-04-08T10:36:54;31.23;;;24.42;;
30299;SDS011;17110;52.602;12.998;2023-04-08T10:39:35;30.65;;;24.08;;
30299;SDS011;17110;52.602;12.998;2023-04-08T10:42:14;31.58;;;25.00;;
30299;SDS011;17110;52.602;12.998;2023-04-08T10:44:56;31.50;;;24.00;;
30299;SDS011;17110;52.602;12.998;2023-04-08T10:47:26;32.55;;;24.25;;
30299;SDS011;17110;52.602;12.998;2023-04-08T10:50:11;31.02;;;24.23;;
30299;SDS011;17110;52.602;12.998;2023-04-08T10:55:23;30.83;;;24.02;;
30299;SDS011;17110;52.602;12.998;2023-04-08T10:57:55;29.90;;;22.88;;
30299;SDS011;17110;52.602;12.998;2023-04-08T11:00:38;29.58;;;23.30;;
30299;SDS011;17110;52.602;12.998;2023-04-08T11:03:17;27.20;;;21.52;;
30299;SDS011;17110;52.602;12.998;2023-04-08T11:05:49;29.83;;;23.50;;
30299;SDS011;17110;52.602;12.998;2023-04-08T11:08:26;31.27;;;23.55;;
30299;SDS011;17110;52.602;12.998;2023-04-08T11:10:59;29.42;;;22.60;;
30299;SDS011;17110;52.602;12.998;2023-04-08T11:13:44;28.48;;;22.48;;
30299;SDS011;17110;52.602;12.998;2023-04-08T11:16:10;27.80;;;21.98;;
30299;SDS011;17110;52.602;12.998;2023-04-08T11:18:45;28.58;;;21.67;;
30299;SDS011;17110;52.602;12.998;2023-04-08T11:21:30;27.58;;;21.83;;
30299;SDS011;17110;52.602;12.998;2023-04-08T11:23:59;27.02;;;21.13;;
30299;SDS011;17110;52.602;12.998;2023-04-08T11:26:25;26.27;;;20.67;;
30299;SDS011;17110;52.602;12.998;2023-04-08T11:28:56;27.00;;;21.23;;
30299;SDS011;17110;52.602;12.998;2023-04-08T11:31:24;29.23;;;21.40;;
30299;SDS011;17110;52.602;12.998;2023-04-08T11:34:00;28.88;;;21.80;;
30299;SDS011;17110;52.602;12.998;2023-04-08T11:36:29;24.95;;;20.17;;
30299;SDS011;17110;52.602;12.998;2023-04-08T11:39:10;26.50;;;20.40;;
30299;SDS011;17110;52.602;12.998;2023-04-08T11:41:54;25.48;;;19.25;;
30299;SDS011;17110;52.602;12.998;2023-04-08T11:44:31;25.27;;;19.92;;
30299;SDS011;17110;52.602;12.998;2023-04-08T11:46:57;27.57;;;20.60;;
30299;SDS011;17110;52.602;12.998;2023-04-08T11:49:26;24.52;;;19.30;;
30299;SDS011;17110;52.602;12.998;2023-04-08T11:51:56;25.92;;;20.13;;
30299;SDS011;17110;52.602;12.998;2023-04-08T11:54:39;27.52;;;20.35;;
30299;SDS011;17110;52.602;12.998;2023-04-08T11:57:10;26.85;;;20.13;;
30299;SDS011;17110;52.602;12.998;2023-04-08T11:59:35;24.33;;;18.90;;
30299;SDS011;17110;52.602;12.998;2023-04-08T12:02:12;24.60;;;18.40;;
30299;SDS011;17110;52.602;12.998;2023-04-08T12:04:39;23.95;;;19.25;;
30299;SDS011;17110;52.602;12.998;2023-04-08T12:07:07;23.27;;;18.87;;
30299;SDS011;17110;52.602;12.998;2023-04-08T12:09:44;24.73;;;18.95;;
30299;SDS011;17110;52.602;12.998;2023-04-08T12:12:12;25.03;;;18.93;;
30299;SDS011;17110;52.602;12.998;2023-04-08T12:14:40;25.45;;;18.20;;
30299;SDS011;17110;52.602;12.998;2023-04-08T12:17:06;21.63;;;17.88;;
30299;SDS011;17110;52.602;12.998;2023-04-08T12:19:42;21.67;;;18.38;;
30299;SDS011;17110;52.602;12.998;2023-04-08T12:22:08;25.27;;;18.63;;
30299;SDS011;17110;52.602;12.998;2023-04-08T12:24:36;22.98;;;18.73;;
30299;SDS011;17110;52.602;12.998;2023-04-08T12:27:05;24.58;;;18.80;;
30299;SDS011;17110;52.602;12.998;2023-04-08T12:29:35;21.70;;;17.60;;
30299;SDS011;17110;52.602;12.998;2023-04-08T12:32:18;22.77;;;18.50;;
30299;SDS011;17110;52.602;12.998;2023-04-08T12:34:53;21.33;;;17.75;;
30299;SDS011;17110;52.602;12.998;2023-04-08T12:37:29;22.83;;;18.50;;
30299;SDS011;17110;52.602;12.998;2023-04-08T12:40:07;22.88;;;18.42;;
30299;SDS011;17110;52.602;12.998;2023-04-08T12:42:33;23.90;;;18.13;;
30299;SDS011;17110;52.602;12.998;2023-04-08T12:44:59;22.40;;;16.98;;
30299;SDS011;17110;52.602;12.998;2023-04-08T12:47:33;20.08;;;16.70;;
30299;SDS011;17110;52.602;12.998;2023-04-08T12:50:01;21.52;;;18.05;;
30299;SDS011;17110;52.602;12.998;2023-04-08T12:52:30;20.90;;;17.10;;
30299;SDS011;17110;52.602;12.998;2023-04-08T12:55:16;22.67;;;18.75;;
30299;SDS011;17110;52.602;12.998;2023-04-08T12:57:49;20.85;;;16.88;;
30299;SDS011;17110;52.602;12.998;2023-04-08T13:00:17;19.92;;;17.50;;
30299;SDS011;17110;52.602;12.998;2023-04-08T13:02:45;21.83;;;17.55;;
30299;SDS011;17110;52.602;12.998;2023-04-08T13:05:16;23.47;;;18.17;;
30299;SDS011;17110;52.602;12.998;2023-04-08T13:07:44;22.20;;;18.40;;
30299;SDS011;17110;52.602;12.998;2023-04-08T13:10:13;22.65;;;18.67;;
30299;SDS011;17110;52.602;12.998;2023-04-08T13:12:41;21.73;;;18.15;;
30299;SDS011;17110;52.602;12.998;2023-04-08T13:15:33;22.80;;;18.08;;
30299;SDS011;17110;52.602;12.998;2023-04-08T13:18:02;22.52;;;18.45;;
30299;SDS011;17110;52.602;12.998;2023-04-08T13:20:46;21.35;;;18.05;;
30299;SDS011;17110;52.602;12.998;2023-04-08T13:23:20;22.90;;;18.77;;
30299;SDS011;17110;52.602;12.998;2023-04-08T13:25:46;22.13;;;18.60;;
30299;SDS011;17110;52.602;12.998;2023-04-08T13:28:29;22.50;;;18.75;;
30299;SDS011;17110;52.602;12.998;2023-04-08T13:30:55;20.02;;;17.02;;
30299;SDS011;17110;52.602;12.998;2023-04-08T13:33:20;20.48;;;17.27;;
30299;SDS011;17110;52.602;12.998;2023-04-08T13:35:46;22.47;;;18.03;;
30299;SDS011;17110;52.602;12.998;2023-04-08T13:38:14;22.77;;;18.45;;
30299;SDS011;17110;52.602;12.998;2023-04-08T13:40:47;23.23;;;17.75;;
30299;SDS011;17110;52.602;12.998;2023-04-08T13:43:14;19.53;;;16.93;;
30299;SDS011;17110;52.602;12.998;2023-04-08T13:45:42;21.02;;;17.80;;
30299;SDS011;17110;52.602;12.998;2023-04-08T13:48:30;20.85;;;17.08;;
30299;SDS011;17110;52.602;12.998;2023-04-08T13:51:09;20.05;;;16.23;;
30299;SDS011;17110;52.602;12.998;2023-04-08T13:53:41;19.75;;;16.52;;
30299;SDS011;17110;52.602;12.998;2023-04-08T13:56:07;19.52;;;16.50;;
30299;SDS011;17110;52.602;12.998;2023-04-08T13:58:45;21.60;;;17.90;;
30299;SDS011;17110;52.602;12.998;2023-04-08T14:01:13;20.58;;;16.27;;
30299;SDS011;17110;52.602;12.998;2023-04-08T14:03:41;20.60;;;17.65;;
30299;SDS011;17110;52.602;12.998;2023-04-08T14:06:29;18.85;;;16.00;;
30299;SDS011;17110;52.602;12.998;2023-04-08T14:09:19;19.42;;;16.67;;
30299;SDS011;17110;52.602;12.998;2023-04-08T14:11:47;20.90;;;17.02;;
30299;SDS011;17110;52.602;12.998;2023-04-08T14:14:24;20.00;;;16.87;;
30299;SDS011;17110;52.602;12.998;2023-04-08T14:17:18;18.20;;;15.57;;
30299;SDS011;17110;52.602;12.998;2023-04-08T14:19:51;16.70;;;14.90;;
30299;SDS011;17110;52.602;12.998;2023-04-08T14:22:17;19.60;;;15.85;;
30299;SDS011;17110;52.602;12.998;2023-04-08T14:24:48;21.33;;;16.47;;
30299;SDS011;17110;52.602;12.998;2023-04-08T14:27:14;19.33;;;16.97;;
30299;SDS011;17110;52.602;12.998;2023-04-08T14:29:45;19.15;;;15.85;;
30299;SDS011;17110;52.602;12.998;2023-04-08T14:32:29;20.63;;;17.33;;
30299;SDS011;17110;52.602;12.998;2023-04-08T14:34:56;19.75;;;16.80;;
30299;SDS011;17110;52.602;12.998;2023-04-08T14:37:24;18.58;;;16.08;;
30299;SDS011;17110;52.602;12.998;2023-04-08T14:39:55;21.33;;;17.10;;
30299;SDS011;17110;52.602;12.998;2023-04-08T14:42:26;19.13;;;16.55;;
30299;SDS011;17110;52.602;12.998;2023-04-08T14:44:52;21.15;;;16.77;;
30299;SDS011;17110;52.602;12.998;2023-04-08T14:47:23;20.00;;;16.23;;
30299;SDS011;17110;52.602;12.998;2023-04-08T14:49:49;18.25;;;16.30;;
30299;SDS011;17110;52.602;12.998;2023-04-08T14:52:18;20.10;;;16.42;;